createdAt,value
2022-09-04T00:02:30.881Z,14.32
2022-09-04T00:05:22.797Z,14.29
2022-09-04T00:08:25.444Z,14.28
2022-09-04T00:11:07.333Z,14.20
2022-09-04T00:13:57.463Z,14.10
2022-09-04T00:17:14.702Z,14.17
2022-09-04T00:19:59.788Z,14.15
2022-09-04T00:23:15.025Z,14.12
2022-09-04T00:26:20.856Z,14.17
2022-09-04T00:29:05.579Z,14.15
2022-09-04T00:31:50.652Z,14.18
2022-09-04T00:35:12.058Z,14.20
2022-09-04T00:38:11.838Z,14.15
2022-09-04T00:41:02.542Z,14.10
2022-09-04T00:44:35.786Z,14.08
2022-09-04T00:47:48.917Z,14.08
2022-09-04T00:50:54.996Z,14.03
2022-09-04T00:53:52.032Z,14.00
2022-09-04T00:57:02.214Z,13.99
2022-09-04T01:00:21.339Z,13.95
2022-09-04T01:03:42.584Z,13.91
2022-09-04T01:06:54.152Z,13.88
2022-09-04T01:09:47.899Z,13.83
2022-09-04T01:12:58.505Z,13.81
2022-09-04T01:15:45.180Z,13.79
2022-09-04T01:18:51.966Z,13.77
2022-09-04T01:21:40.157Z,13.67
2022-09-04T01:24:42.070Z,13.59
2022-09-04T01:27:56.672Z,13.61
2022-09-04T01:30:24.148Z,13.61
2022-09-04T01:33:24.016Z,13.55
2022-09-04T01:36:49.533Z,13.48
2022-09-04T01:39:26.197Z,13.50
2022-09-04T01:42:23.633Z,13.50
2022-09-04T01:44:50.710Z,13.42
2022-09-04T01:47:30.939Z,13.36
2022-09-04T01:50:22.175Z,13.39
2022-09-04T01:53:14.544Z,13.37
2022-09-04T01:56:29.735Z,13.32
2022-09-04T01:59:26.427Z,13.33
2022-09-04T02:02:41.356Z,13.21
2022-09-04T02:05:43.136Z,13.14
2022-09-04T02:08:55.306Z,13.29
2022-09-04T02:11:29.848Z,13.23
2022-09-04T02:14:24.402Z,13.25
2022-09-04T02:17:21.150Z,13.25
2022-09-04T02:20:17.072Z,13.19
2022-09-04T02:23:14.461Z,13.14
2022-09-04T02:26:19.419Z,13.10
2022-09-04T02:29:28.203Z,13.12
2022-09-04T02:32:19.427Z,13.16
2022-09-04T02:35:16.096Z,13.10
2022-09-04T02:38:26.333Z,13.16
2022-09-04T02:40:56.190Z,13.11
2022-09-04T02:43:43.714Z,13.18
2022-09-04T02:46:51.120Z,13.24
2022-09-04T02:49:51.988Z,13.20
2022-09-04T02:53:21.100Z,13.27
2022-09-04T02:56:46.608Z,13.28
2022-09-04T02:59:43.068Z,13.25
2022-09-04T03:02:38.742Z,13.23
2022-09-04T03:05:42.265Z,13.21
2022-09-04T03:08:24.307Z,13.22
2022-09-04T03:11:26.949Z,13.27
2022-09-04T03:14:39.052Z,13.29
2022-09-04T03:17:30.029Z,13.33
2022-09-04T03:20:33.743Z,13.39
2022-09-04T03:23:25.787Z,13.36
2022-09-04T03:26:01.648Z,13.26
2022-09-04T03:29:11.918Z,13.30
2022-09-04T03:32:15.864Z,13.20
2022-09-04T03:35:26.397Z,13.23
2022-09-04T03:38:34.108Z,13.19
2022-09-04T03:41:45.981Z,13.16
2022-09-04T03:44:54.837Z,13.21
2022-09-04T03:48:09.394Z,13.13
2022-09-04T03:51:01.417Z,13.04
2022-09-04T03:53:59.383Z,13.00
2022-09-04T03:57:19.933Z,12.94
2022-09-04T04:00:12.728Z,12.86
2022-09-04T04:03:19.628Z,12.94
2022-09-04T04:06:23.732Z,12.89
2022-09-04T04:09:47.451Z,12.84
2022-09-04T04:12:59.250Z,12.77
2022-09-04T04:15:37.955Z,12.74
2022-09-04T04:18:54.330Z,12.76
2022-09-04T04:22:13.691Z,12.76
2022-09-04T04:25:42.559Z,12.71
2022-09-04T04:29:02.812Z,12.58
2022-09-04T04:32:10.678Z,12.52
2022-09-04T04:35:26.317Z,12.45
2022-09-04T04:38:24.874Z,12.44
2022-09-04T04:41:30.899Z,12.43
2022-09-04T04:44:45.711Z,12.45
2022-09-04T04:48:00.456Z,12.42
2022-09-04T04:51:05.374Z,12.37
2022-09-04T04:54:34.711Z,12.39
2022-09-04T04:57:27.660Z,12.45
2022-09-04T05:00:37.199Z,12.55
2022-09-04T05:03:54.014Z,12.55
2022-09-04T05:07:52.789Z,12.67
2022-09-04T05:10:41.173Z,12.66
2022-09-04T05:13:41.705Z,12.63
2022-09-04T05:16:58.404Z,12.63
2022-09-04T05:20:15.394Z,12.60
2022-09-04T05:23:29.177Z,12.61
2022-09-04T05:26:19.441Z,12.70
2022-09-04T05:29:47.526Z,12.78
2022-09-04T05:32:37.638Z,12.86
2022-09-04T05:35:41.021Z,12.96
2022-09-04T05:38:30.628Z,13.02
2022-09-04T05:41:19.562Z,13.01
2022-09-04T05:44:31.067Z,13.07
2022-09-04T05:47:47.841Z,13.04
2022-09-04T05:50:46.658Z,12.92
2022-09-04T05:54:02.643Z,12.94
2022-09-04T05:57:29.686Z,12.97
2022-09-04T06:00:13.398Z,12.97
2022-09-04T06:03:12.527Z,13.07
2022-09-04T06:06:10.221Z,13.15
2022-09-04T06:09:58.636Z,13.20
2022-09-04T06:12:49.569Z,13.39
2022-09-04T06:16:08.116Z,13.69
2022-09-04T06:19:15.035Z,13.93
2022-09-04T06:22:40.716Z,14.19
2022-09-04T06:25:59.880Z,14.37
2022-09-04T06:29:14.875Z,14.58
2022-09-04T06:32:22.445Z,14.91
2022-09-04T06:35:15.792Z,15.16
2022-09-04T06:38:09.518Z,15.23
2022-09-04T06:41:22.838Z,15.36
2022-09-04T06:44:16.312Z,15.50
2022-09-04T06:46:57.697Z,15.51
2022-09-04T06:50:08.549Z,15.66
2022-09-04T06:53:16.326Z,15.95
2022-09-04T06:56:35.989Z,16.21
2022-09-04T06:59:42.040Z,16.28
2022-09-04T07:02:31.245Z,16.44
2022-09-04T07:05:13.758Z,16.34
2022-09-04T07:08:18.515Z,16.14
2022-09-04T07:10:59.592Z,16.50
2022-09-04T07:14:45.267Z,16.71
2022-09-04T07:17:37.739Z,16.79
2022-09-04T07:20:43.517Z,17.11
2022-09-04T07:23:46.154Z,17.07
2022-09-04T07:26:58.566Z,16.67
2022-09-04T07:29:41.679Z,16.90
2022-09-04T07:32:26.761Z,16.65
2022-09-04T07:35:30.148Z,16.89
2022-09-04T07:38:21.959Z,17.08
2022-09-04T07:41:02.549Z,17.41
2022-09-04T07:43:54.697Z,17.57
2022-09-04T07:46:57.541Z,17.66
2022-09-04T07:50:15.926Z,17.97
2022-09-04T07:53:19.912Z,17.84
2022-09-04T07:56:02.046Z,18.21
2022-09-04T07:58:56.766Z,18.54
2022-09-04T08:02:27.831Z,18.70
2022-09-04T08:05:37.049Z,18.78
2022-09-04T08:08:28.644Z,18.85
2022-09-04T08:11:35.199Z,18.65
2022-09-04T08:14:52.082Z,18.98
2022-09-04T08:17:46.083Z,19.04
2022-09-04T08:20:56.854Z,19.11
2022-09-04T08:23:54.634Z,19.57
2022-09-04T08:27:00.802Z,19.86
2022-09-04T08:30:10.344Z,19.97
2022-09-04T08:33:28.363Z,19.85
2022-09-04T08:36:31.593Z,20.04
2022-09-04T08:39:52.343Z,19.85
2022-09-04T08:42:59.583Z,20.01
2022-09-04T08:46:32.286Z,19.69
2022-09-04T08:49:11.683Z,19.78
2022-09-04T08:52:44.769Z,19.90
2022-09-04T08:55:32.658Z,20.45
2022-09-04T08:58:49.408Z,20.57
2022-09-04T09:02:10.490Z,20.57
2022-09-04T09:05:23.118Z,20.53
2022-09-04T09:08:49.934Z,20.70
2022-09-04T09:12:40.695Z,20.53
2022-09-04T09:15:50.952Z,20.71
2022-09-04T09:19:10.254Z,21.13
2022-09-04T09:22:27.880Z,21.36
2022-09-04T09:26:02.979Z,21.70
2022-09-04T09:29:26.831Z,21.58
2022-09-04T09:32:37.510Z,21.62
2022-09-04T09:36:07.636Z,21.71
2022-09-04T09:39:25.692Z,21.64
2022-09-04T09:42:20.075Z,21.49
2022-09-04T09:45:27.399Z,21.73
2022-09-04T09:48:31.467Z,21.73
2022-09-04T09:52:11.526Z,21.86
2022-09-04T09:55:26.314Z,21.86
2022-09-04T09:58:36.038Z,21.69
2022-09-04T10:01:51.289Z,21.80
2022-09-04T10:05:13.746Z,21.67
2022-09-04T10:08:35.542Z,21.87
2022-09-04T10:11:29.233Z,21.98
2022-09-04T10:14:31.885Z,22.11
2022-09-04T10:17:19.589Z,22.11
2022-09-04T10:20:30.074Z,22.24
2022-09-04T10:23:06.919Z,22.23
2022-09-04T10:26:16.194Z,22.30
2022-09-04T10:29:28.799Z,22.80
2022-09-04T10:32:25.625Z,22.89
2022-09-04T10:35:25.400Z,22.79
2022-09-04T10:38:38.392Z,22.61
2022-09-04T10:41:49.933Z,23.13
2022-09-04T10:45:15.876Z,23.16
2022-09-04T10:48:28.639Z,22.94
2022-09-04T10:52:05.655Z,22.95
2022-09-04T10:54:46.381Z,22.90
2022-09-04T10:58:17.219Z,23.05
2022-09-04T11:01:42.732Z,22.86
2022-09-04T11:05:02.630Z,22.63
2022-09-04T11:08:28.684Z,22.66
2022-09-04T11:11:52.964Z,22.77
2022-09-04T11:15:25.244Z,22.88
2022-09-04T11:18:33.108Z,23.06
2022-09-04T11:22:20.465Z,22.85
2022-09-04T11:25:04.335Z,22.72
2022-09-04T11:33:05.076Z,22.47
2022-09-04T11:36:08.047Z,22.56
2022-09-04T11:39:05.053Z,22.62
2022-09-04T11:42:27.732Z,22.67
2022-09-04T11:46:06.699Z,22.53
2022-09-04T11:49:18.866Z,22.61
2022-09-04T11:52:31.303Z,22.72
2022-09-04T11:55:09.965Z,22.87
2022-09-04T11:58:09.981Z,22.90
2022-09-04T12:01:22.825Z,22.94
2022-09-04T12:04:23.266Z,22.91
2022-09-04T12:07:19.533Z,23.04
2022-09-04T12:10:19.748Z,22.96
2022-09-04T12:13:47.615Z,22.92
2022-09-04T12:16:52.785Z,22.84
2022-09-04T12:19:55.102Z,22.81
2022-09-04T12:23:19.199Z,22.92
2022-09-04T12:26:51.217Z,23.09
2022-09-04T12:29:40.042Z,23.00
2022-09-04T12:32:45.120Z,23.00
2022-09-04T12:35:39.447Z,23.01
2022-09-04T12:38:47.334Z,23.16
2022-09-04T12:41:49.225Z,23.14
2022-09-04T12:44:53.561Z,23.09
2022-09-04T12:47:41.208Z,23.05
2022-09-04T12:50:33.429Z,23.12
2022-09-04T12:54:00.053Z,23.20
2022-09-04T12:57:55.768Z,23.18
2022-09-04T13:00:40.794Z,23.19
2022-09-04T13:03:59.922Z,23.38
2022-09-04T13:07:15.956Z,23.28
2022-09-04T13:10:33.040Z,23.27
2022-09-04T13:14:23.518Z,23.43
2022-09-04T13:17:30.152Z,23.39
2022-09-04T13:20:26.486Z,23.52
2022-09-04T13:23:46.806Z,23.67
2022-09-04T13:26:47.194Z,23.81
2022-09-04T13:30:03.275Z,24.11
2022-09-04T13:32:55.481Z,23.95
2022-09-04T13:36:19.216Z,24.09
2022-09-04T13:39:27.950Z,24.09
2022-09-04T13:42:26.162Z,24.26
2022-09-04T13:45:23.477Z,24.37
2022-09-04T13:48:32.752Z,24.41
2022-09-04T13:51:37.590Z,24.44
2022-09-04T13:54:37.061Z,24.19
2022-09-04T13:57:28.072Z,24.13
2022-09-04T14:00:07.733Z,24.23
2022-09-04T14:02:39.251Z,24.33
2022-09-04T14:05:33.305Z,24.11
2022-09-04T14:08:08.929Z,23.79
2022-09-04T14:11:11.046Z,24.01
2022-09-04T14:14:41.270Z,24.17
2022-09-04T14:17:12.058Z,24.72
2022-09-04T14:20:48.431Z,25.34
2022-09-04T14:23:48.478Z,25.34
2022-09-04T14:26:24.601Z,25.44
2022-09-04T14:29:36.274Z,25.83
2022-09-04T14:33:07.475Z,25.80
2022-09-04T14:36:35.531Z,25.55
2022-09-04T14:39:15.984Z,25.52
2022-09-04T14:42:32.020Z,26.01
2022-09-04T14:45:25.777Z,26.81
2022-09-04T14:48:06.854Z,27.04
2022-09-04T14:50:55.813Z,27.20
2022-09-04T14:53:36.014Z,27.29
2022-09-04T14:56:12.014Z,27.28
2022-09-04T14:59:34.299Z,27.76
2022-09-04T15:02:08.697Z,27.63
2022-09-04T15:05:07.498Z,27.60
2022-09-04T15:07:43.132Z,27.40
2022-09-04T15:10:50.982Z,27.66
2022-09-04T15:13:31.479Z,28.01
2022-09-04T15:16:09.925Z,28.00
2022-09-04T15:19:56.489Z,27.19
2022-09-04T15:23:07.599Z,26.97
2022-09-04T15:26:03.014Z,27.50
2022-09-04T15:28:51.649Z,27.29
2022-09-04T15:31:42.146Z,27.27
2022-09-04T15:34:24.213Z,27.37
2022-09-04T15:36:51.712Z,27.71
2022-09-04T15:39:54.799Z,27.03
2022-09-04T15:42:56.758Z,26.51
2022-09-04T15:45:54.120Z,26.06
2022-09-04T15:49:17.402Z,25.58
2022-09-04T15:52:44.344Z,25.30
2022-09-04T15:55:30.720Z,24.91
2022-09-04T15:58:36.389Z,24.42
2022-09-04T16:01:06.520Z,24.10
2022-09-04T16:04:33.358Z,23.70
2022-09-04T16:07:36.927Z,23.33
2022-09-04T16:10:24.687Z,23.25
2022-09-04T16:13:32.922Z,23.16
2022-09-04T16:16:46.631Z,23.04
2022-09-04T16:19:59.991Z,22.88
2022-09-04T16:23:12.216Z,22.70
2022-09-04T16:25:50.415Z,22.53
2022-09-04T16:28:34.868Z,22.44
2022-09-04T16:31:23.050Z,22.28
2022-09-04T16:34:02.112Z,22.19
2022-09-04T16:36:40.245Z,22.17
2022-09-04T16:39:43.692Z,22.12
2022-09-04T16:42:46.321Z,22.02
2022-09-04T16:45:55.501Z,21.84
2022-09-04T16:48:48.652Z,21.90
2022-09-04T16:51:57.831Z,21.80
2022-09-04T16:54:49.251Z,21.64
2022-09-04T16:57:33.298Z,21.57
2022-09-04T17:00:14.321Z,21.55
2022-09-04T17:02:53.547Z,21.43
2022-09-04T17:05:51.397Z,21.29
2022-09-04T17:09:24.367Z,21.18
2022-09-04T17:12:20.627Z,21.01
2022-09-04T17:15:29.425Z,20.92
2022-09-04T17:17:59.457Z,20.82
2022-09-04T17:22:34.757Z,20.74
2022-09-04T17:28:58.917Z,20.61
2022-09-04T17:29:13.812Z,20.44
2022-09-04T17:30:07.662Z,20.30
2022-09-04T17:38:09.063Z,20.25
2022-09-04T17:40:41.220Z,20.16
2022-09-04T17:40:52.440Z,19.98
2022-09-04T17:43:22.361Z,19.76
2022-09-04T17:46:15.999Z,19.58
2022-09-04T17:48:46.364Z,19.37
2022-09-04T17:51:33.803Z,19.19
2022-09-04T17:54:14.373Z,19.03
2022-09-04T17:56:59.858Z,18.91
2022-09-04T18:00:06.870Z,18.76
2022-09-04T18:02:59.537Z,18.63
2022-09-04T18:05:53.840Z,18.50
2022-09-04T18:08:55.625Z,18.35
2022-09-04T18:12:00.140Z,18.18
2022-09-04T18:15:32.262Z,18.07
2022-09-04T18:18:18.323Z,17.97
2022-09-04T18:21:12.261Z,17.86
2022-09-04T18:24:11.997Z,17.78
2022-09-04T18:26:51.203Z,17.70
2022-09-04T18:32:09.968Z,17.63
2022-09-04T18:37:06.670Z,17.54
2022-09-04T18:37:25.320Z,17.46
2022-09-04T18:39:41.011Z,17.38
2022-09-04T18:50:22.932Z,17.33
2022-09-04T18:50:39.876Z,17.27
2022-09-04T18:50:48.708Z,17.22
2022-09-04T18:51:30.666Z,17.14
2022-09-04T18:54:47.397Z,17.05
2022-09-04T18:57:49.263Z,16.93
2022-09-04T19:00:41.140Z,16.86
2022-09-04T19:03:27.873Z,16.79
2022-09-04T19:06:12.642Z,16.71
2022-09-04T19:08:51.736Z,16.64
2022-09-04T19:11:32.015Z,16.60
2022-09-04T19:14:19.044Z,16.53
2022-09-04T19:17:19.676Z,16.42
2022-09-04T19:20:07.914Z,16.33
2022-09-04T19:22:48.811Z,16.32
2022-09-04T19:25:34.015Z,16.33
2022-09-04T19:28:34.439Z,16.31
2022-09-04T19:31:31.303Z,16.32
2022-09-04T19:34:17.654Z,16.29
2022-09-04T19:38:13.676Z,16.32
2022-09-04T19:45:57.207Z,16.34
2022-09-04T19:45:59.535Z,16.32
2022-09-04T19:48:00.826Z,16.28
2022-09-04T19:53:31.576Z,16.24
2022-09-04T19:54:08.637Z,16.22
2022-09-04T19:57:32.626Z,16.22
2022-09-04T20:00:42.912Z,16.23
2022-09-04T20:03:56.711Z,16.20
2022-09-04T20:06:50.828Z,16.20
2022-09-04T20:09:49.635Z,16.16
2022-09-04T20:12:48.929Z,16.11
2022-09-04T20:15:31.743Z,16.06
2022-09-04T20:18:40.823Z,16.02
2022-09-04T20:21:18.100Z,16.12
2022-09-04T20:24:13.826Z,16.08
2022-09-04T20:27:24.388Z,16.03
2022-09-04T20:30:13.007Z,15.97
2022-09-04T20:32:56.550Z,15.96
2022-09-04T20:36:03.804Z,15.91
2022-09-04T20:39:12.695Z,15.87
2022-09-04T20:42:18.591Z,15.80
2022-09-04T20:46:11.092Z,15.78
2022-09-04T20:52:51.802Z,15.75
2022-09-04T20:52:52.785Z,15.78
2022-09-04T20:55:18.175Z,15.67
2022-09-04T21:02:34.683Z,15.62
2022-09-04T21:03:09.148Z,15.64
2022-09-04T21:04:55.290Z,15.73
2022-09-04T21:07:54.956Z,15.67
2022-09-04T21:10:37.895Z,15.63
2022-09-04T21:14:06.549Z,15.60
2022-09-04T21:17:29.067Z,15.55
2022-09-04T21:20:26.163Z,15.51
2022-09-04T21:23:31.698Z,15.45
2022-09-04T21:26:16.710Z,15.45
2022-09-04T21:29:10.788Z,15.43
2022-09-04T21:31:59.231Z,15.35
2022-09-04T21:35:15.767Z,15.30
2022-09-04T21:38:05.268Z,15.31
2022-09-04T21:41:19.193Z,15.38
2022-09-04T21:44:11.128Z,15.32
2022-09-04T21:47:45.066Z,15.26
2022-09-04T21:50:49.323Z,15.27
2022-09-04T21:55:26.654Z,15.25
2022-09-04T22:02:28.188Z,15.19
2022-09-04T22:02:37.308Z,15.14
2022-09-04T22:05:39.485Z,15.11
2022-09-04T22:13:06.277Z,15.07
2022-09-04T22:13:33.498Z,14.99
2022-09-04T22:15:06.879Z,14.95
2022-09-04T22:18:48.493Z,14.89
2022-09-04T22:22:12.069Z,14.88
2022-09-04T22:25:12.482Z,14.83
2022-09-04T22:28:29.009Z,14.76
2022-09-04T22:31:24.631Z,14.68
2022-09-04T22:34:42.653Z,14.65
2022-09-04T22:37:58.684Z,14.62
2022-09-04T22:41:17.706Z,14.62
2022-09-04T22:44:14.091Z,14.61
2022-09-04T22:47:27.160Z,14.59
2022-09-04T22:50:50.233Z,14.65
2022-09-04T22:54:05.327Z,14.59
2022-09-04T22:56:59.370Z,14.50
2022-09-04T23:00:11.404Z,14.51
2022-09-04T23:03:47.047Z,14.52
2022-09-04T23:11:25.272Z,14.46
2022-09-04T23:14:00.920Z,14.53
2022-09-04T23:14:08.812Z,14.50
2022-09-04T23:17:09.178Z,14.49
2022-09-04T23:26:31.047Z,14.40
2022-09-04T23:26:49.610Z,14.39
2022-09-04T23:27:01.486Z,14.42
2022-09-04T23:30:25.101Z,14.30
2022-09-04T23:33:37.317Z,14.25
2022-09-04T23:36:57.182Z,14.22
2022-09-04T23:40:10.383Z,14.20
2022-09-04T23:44:00.802Z,14.17
2022-09-04T23:46:55.948Z,14.13
2022-09-04T23:49:46.673Z,14.09
2022-09-04T23:52:48.906Z,14.09
2022-09-04T23:55:48.931Z,14.15
2022-09-04T23:59:38.241Z,14.14
